Time;durP1;ratioP1;P1;durP2;ratioP2;P2;SDS_P1;SDS_P2;PMS_P1;PMS_P2;Temp;Humidity;BMP_temperature;BMP_pressure;BME280_temperature;BME280_humidity;BME280_pressure;Samples;Min_cycle;Max_cycle;Signal;HPM_P1;HPM_P2
2021/04/14 00:00:44;;;;;;;24.05;14.30;;;6.60;99.90;;;;;;5010271;28;20107;-65
2021/04/14 00:03:18;;;;;;;18.45;14.95;;;6.70;99.90;;;;;;5004170;28;20080;-65
2021/04/14 00:05:44;;;;;;;17.98;14.52;;;6.70;99.90;;;;;;5004366;28;20029;-65
2021/04/14 00:08:10;;;;;;;15.27;13.23;;;6.70;99.90;;;;;;5003640;28;20300;-65
2021/04/14 00:10:36;;;;;;;22.90;14.68;;;6.60;99.90;;;;;;5002893;28;20430;-65
2021/04/14 00:13:03;;;;;;;21.98;14.70;;;6.50;99.90;;;;;;5003604;28;20029;-65
2021/04/14 00:15:36;;;;;;;22.58;15.32;;;6.60;99.90;;;;;;5001880;28;20029;-65
2021/04/14 00:18:02;;;;;;;15.98;13.73;;;6.50;99.90;;;;;;5003770;28;20022;-65
2021/04/14 00:20:28;;;;;;;25.05;17.50;;;6.60;99.90;;;;;;5001058;28;20061;-65
2021/04/14 00:22:53;;;;;;;25.02;16.42;;;6.70;99.90;;;;;;5003782;28;20096;-66
2021/04/14 00:25:24;;;;;;;20.98;15.30;;;6.70;99.90;;;;;;5000185;28;20038;-65
2021/04/14 00:27:50;;;;;;;25.55;15.38;;;6.70;99.90;;;;;;5000370;28;20026;-65
2021/04/14 00:30:16;;;;;;;19.02;13.63;;;6.60;99.90;;;;;;4998848;28;20036;-65
2021/04/14 00:32:42;;;;;;;22.05;14.60;;;6.70;99.90;;;;;;5002373;28;20481;-65
2021/04/14 00:35:08;;;;;;;19.38;15.00;;;6.50;99.90;;;;;;4998120;28;20037;-65
2021/04/14 00:37:34;;;;;;;21.60;14.50;;;6.40;99.90;;;;;;5000125;28;20022;-65
2021/04/14 00:39:59;;;;;;;19.02;13.00;;;6.60;99.90;;;;;;4993180;28;20049;-65
2021/04/14 00:42:25;;;;;;;18.27;13.13;;;6.60;99.90;;;;;;5001779;28;20504;-65
2021/04/14 00:44:51;;;;;;;18.23;13.65;;;6.60;99.90;;;;;;4990797;28;20045;-65
2021/04/14 00:47:17;;;;;;;23.10;14.65;;;6.30;99.90;;;;;;5002435;28;20038;-65
2021/04/14 00:49:45;;;;;;;39.63;20.45;;;6.10;99.90;;;;;;5002336;28;20095;-65
2021/04/14 00:52:11;;;;;;;39.85;20.42;;;6.00;99.90;;;;;;5006983;28;20044;-65
2021/04/14 00:54:37;;;;;;;38.60;19.30;;;6.00;99.90;;;;;;5000443;28;20025;-65
2021/04/14 00:57:03;;;;;;;40.00;18.73;;;6.10;99.90;;;;;;5006368;28;20069;-65
2021/04/14 00:59:29;;;;;;;29.15;16.23;;;6.10;99.90;;;;;;4998977;28;20026;-65
2021/04/14 01:01:56;;;;;;;26.77;16.50;;;6.20;99.90;;;;;;5005402;28;20037;-65
2021/04/14 01:04:22;;;;;;;20.67;14.32;;;6.20;99.90;;;;;;5000954;28;20038;-65
2021/04/14 01:06:48;;;;;;;21.85;13.32;;;6.10;99.90;;;;;;5006311;28;20045;-65
2021/04/14 01:09:14;;;;;;;23.75;13.43;;;5.90;99.90;;;;;;4998901;28;20050;-65
2021/04/14 01:11:40;;;;;;;22.17;13.45;;;5.70;99.90;;;;;;5007369;28;20026;-65
2021/04/14 01:14:05;;;;;;;20.45;13.65;;;5.90;99.90;;;;;;4998655;28;20102;-65
2021/04/14 01:16:31;;;;;;;18.35;12.85;;;5.80;99.90;;;;;;5006214;28;20137;-65
2021/04/14 01:18:57;;;;;;;19.45;13.07;;;5.90;99.90;;;;;;4999443;28;20051;-65
2021/04/14 01:21:32;;;;;;;18.73;11.88;;;6.00;99.90;;;;;;5004066;28;20536;-65
2021/04/14 01:23:58;;;;;;;16.85;11.85;;;6.00;99.90;;;;;;4999581;28;20042;-65
2021/04/14 01:26:24;;;;;;;17.00;11.48;;;6.20;99.90;;;;;;5008150;28;20026;-65
2021/04/14 01:28:50;;;;;;;13.07;11.65;;;6.10;99.90;;;;;;5001142;28;20014;-65
2021/04/14 01:31:31;;;;;;;21.67;12.68;;;6.20;99.90;;;;;;5006684;28;20032;-65
2021/04/14 01:33:58;;;;;;;20.98;12.93;;;6.10;99.90;;;;;;5000175;28;20025;-65
2021/04/14 01:36:24;;;;;;;21.48;13.35;;;6.00;99.90;;;;;;5005353;28;20111;-65
2021/04/14 01:38:49;;;;;;;16.40;12.40;;;6.10;99.90;;;;;;5002098;28;20022;-65
2021/04/14 01:41:15;;;;;;;19.73;12.18;;;6.00;99.90;;;;;;5004678;28;20030;-65
2021/04/14 01:43:41;;;;;;;22.10;12.07;;;6.00;99.90;;;;;;4996111;28;20026;-65
2021/04/14 01:46:06;;;;;;;25.33;14.38;;;6.00;99.90;;;;;;5003429;28;20038;-65
2021/04/14 01:48:32;;;;;;;20.48;13.40;;;6.00;99.90;;;;;;4997868;28;20065;-65
2021/04/14 01:50:58;;;;;;;22.20;12.45;;;6.10;99.90;;;;;;5012778;28;20065;-65
2021/04/14 01:53:23;;;;;;;17.80;13.07;;;6.00;99.90;;;;;;5000991;28;20448;-66
2021/04/14 01:55:50;;;;;;;18.77;12.27;;;6.00;99.90;;;;;;5013262;28;20426;-65
2021/04/14 01:58:17;;;;;;;24.55;13.45;;;6.00;99.90;;;;;;5001219;28;20026;-65
2021/04/14 02:00:54;;;;;;;16.80;12.55;;;5.90;99.90;;;;;;5011031;28;20060;-66
2021/04/14 02:03:22;;;;;;;22.63;14.75;;;5.90;99.90;;;;;;5005616;28;20053;-65
2021/04/14 02:05:48;;;;;;;21.40;13.30;;;5.90;99.90;;;;;;5007178;28;20033;-65
2021/04/14 02:08:16;;;;;;;19.50;13.38;;;5.80;99.90;;;;;;5004056;28;20046;-65
2021/04/14 02:10:42;;;;;;;19.80;13.25;;;5.70;99.90;;;;;;5005533;28;20023;-65
2021/04/14 02:13:14;;;;;;;24.00;13.52;;;5.70;99.90;;;;;;5006181;28;20045;-65
2021/04/14 02:15:40;;;;;;;25.48;14.20;;;5.60;99.90;;;;;;5004348;28;20120;-65
2021/04/14 02:18:06;;;;;;;25.90;14.88;;;5.50;99.90;;;;;;5002366;28;20685;-65
2021/04/14 02:20:33;;;;;;;25.05;13.65;;;5.40;99.90;;;;;;5003364;28;20613;-65
2021/04/14 02:23:09;;;;;;;21.98;13.82;;;5.30;99.90;;;;;;5005992;28;20514;-65
2021/04/14 02:25:35;;;;;;;;;;;5.10;99.90;;;;;;5003025;28;20126;-65
2021/04/14 02:28:00;;;;;;;17.90;12.93;;;5.20;99.90;;;;;;5005442;28;20004;-65
2021/04/14 02:30:27;;;;;;;21.13;13.25;;;5.30;99.90;;;;;;5001670;28;20114;-65
2021/04/14 02:32:54;;;;;;;17.58;12.50;;;5.30;99.90;;;;;;5004679;28;20022;-65
2021/04/14 02:35:22;;;;;;;21.20;13.30;;;5.20;99.90;;;;;;5000360;28;20057;-65
2021/04/14 02:37:48;;;;;;;15.90;11.35;;;5.20;99.90;;;;;;5003685;28;20028;-65
2021/04/14 02:40:14;;;;;;;15.50;11.50;;;5.00;99.90;;;;;;4999626;28;20041;-65
2021/04/14 02:42:41;;;;;;;18.63;12.07;;;4.90;99.90;;;;;;5002064;28;20513;-65
2021/04/14 02:45:09;;;;;;;19.15;12.25;;;5.10;99.90;;;;;;4995068;28;20414;-65
2021/04/14 02:47:34;;;;;;;19.02;12.13;;;5.20;99.90;;;;;;5002452;28;20026;-65
2021/04/14 02:50:00;;;;;;;15.65;11.30;;;5.10;99.90;;;;;;5006329;28;20026;-65
2021/04/14 02:52:26;;;;;;;15.20;11.30;;;5.00;99.90;;;;;;5009673;28;20106;-65
2021/04/14 02:54:52;;;;;;;14.68;11.63;;;4.90;99.90;;;;;;5011172;28;20026;-65
2021/04/14 02:57:17;;;;;;;14.43;10.20;;;4.90;99.90;;;;;;5007900;28;20121;-65
2021/04/14 02:59:43;;;;;;;16.02;10.43;;;4.70;99.90;;;;;;5001877;28;20101;-65
2021/04/14 03:02:09;;;;;;;19.17;11.57;;;4.80;99.90;;;;;;5005923;28;20030;-65
2021/04/14 03:04:36;;;;;;;14.95;10.45;;;4.80;99.90;;;;;;5004607;28;20025;-65
2021/04/14 03:07:02;;;;;;;13.88;10.85;;;4.90;99.90;;;;;;5005749;28;20038;-65
2021/04/14 03:09:28;;;;;;;15.90;11.15;;;4.80;99.90;;;;;;5015841;28;20503;-65
2021/04/14 03:11:54;;;;;;;17.05;11.63;;;4.70;99.90;;;;;;5005588;28;20027;-65
2021/04/14 03:14:19;;;;;;;15.73;10.98;;;4.70;99.90;;;;;;5000576;28;20454;-65
2021/04/14 03:16:45;;;;;;;18.52;11.00;;;4.80;99.90;;;;;;5005972;28;20029;-65
2021/04/14 03:19:10;;;;;;;11.65;10.48;;;4.80;99.90;;;;;;5000542;28;20105;-65
2021/04/14 03:21:37;;;;;;;14.43;9.95;;;4.50;99.90;;;;;;5006790;28;20149;-65
2021/04/14 03:24:03;;;;;;;15.32;10.38;;;4.50;99.90;;;;;;5000612;28;20018;-65
2021/04/14 03:26:29;;;;;;;17.45;11.52;;;4.50;99.90;;;;;;5003914;28;20018;-65
2021/04/14 03:28:54;;;;;;;14.35;10.70;;;4.40;99.90;;;;;;5000210;28;20085;-65
2021/04/14 03:31:20;;;;;;;10.75;9.63;;;4.40;99.90;;;;;;5002843;28;20030;-65
2021/04/14 03:33:46;;;;;;;13.63;10.63;;;4.30;99.90;;;;;;4994232;28;20057;-65
2021/04/14 03:36:11;;;;;;;14.02;10.05;;;4.30;99.90;;;;;;5001374;28;20041;-65
2021/04/14 03:38:37;;;;;;;13.77;10.30;;;4.40;99.90;;;;;;4996613;28;20026;-65
2021/04/14 03:41:03;;;;;;;15.02;10.45;;;4.40;99.90;;;;;;5011036;28;20470;-65
2021/04/14 03:43:28;;;;;;;18.17;12.77;;;4.20;99.90;;;;;;5007476;28;20029;-65
2021/04/14 03:45:58;;;;;;;19.83;12.90;;;4.10;99.90;;;;;;5011077;28;20453;-65
2021/04/14 03:48:24;;;;;;;23.13;12.57;;;4.00;99.90;;;;;;4997725;28;20026;-65
2021/04/14 03:50:51;;;;;;;18.17;11.07;;;4.10;99.90;;;;;;5010002;28;20105;-65
2021/04/14 03:53:27;;;;;;;15.93;11.23;;;4.20;99.90;;;;;;4998447;28;20376;-65
2021/04/14 03:56:05;;;;;;;15.82;11.05;;;4.10;99.90;;;;;;5009672;28;20040;-66
2021/04/14 03:58:32;;;;;;;15.10;11.68;;;4.10;99.90;;;;;;4995225;28;20122;-66
2021/04/14 04:01:01;;;;;;;19.20;11.85;;;4.10;99.90;;;;;;5009138;28;20026;-66
2021/04/14 04:03:27;;;;;;;22.88;12.18;;;4.00;99.90;;;;;;5002329;28;20033;-65
2021/04/14 04:05:54;;;;;;;22.88;12.90;;;4.10;99.90;;;;;;5005246;28;20593;-65
2021/04/14 04:08:20;;;;;;;22.02;12.57;;;4.00;99.90;;;;;;5003609;28;20053;-65
2021/04/14 04:10:46;;;;;;;18.52;12.90;;;3.70;99.90;;;;;;5003836;28;20083;-65
2021/04/14 04:13:13;;;;;;;14.07;11.60;;;3.80;99.90;;;;;;5003968;28;20030;-65
2021/04/14 04:15:39;;;;;;;22.75;13.45;;;3.80;99.90;;;;;;5002416;28;20095;-65
2021/04/14 04:18:06;;;;;;;22.23;14.15;;;3.80;99.90;;;;;;5003882;28;20621;-65
2021/04/14 04:20:33;;;;;;;20.95;12.85;;;3.80;99.90;;;;;;5001354;28;20080;-65
2021/04/14 04:23:00;;;;;;;20.98;12.35;;;3.70;99.90;;;;;;5003409;28;20026;-65
2021/04/14 04:25:26;;;;;;;20.95;13.52;;;3.60;99.90;;;;;;5000188;28;20517;-66
2021/04/14 04:27:52;;;;;;;29.83;17.45;;;3.70;99.90;;;;;;5001256;28;20498;-65
2021/04/14 04:30:18;;;;;;;37.63;18.95;;;3.70;99.90;;;;;;4999534;28;20037;-65
2021/04/14 04:32:44;;;;;;;27.15;15.52;;;3.70;99.90;;;;;;5002752;28;20056;-65
2021/04/14 04:35:10;;;;;;;22.60;14.50;;;3.80;99.90;;;;;;4996512;28;20054;-65
2021/04/14 04:37:36;;;;;;;20.40;12.63;;;3.60;99.90;;;;;;5003353;28;20033;-65
2021/04/14 04:40:04;;;;;;;21.17;12.23;;;3.60;99.90;;;;;;5009533;28;20030;-66
2021/04/14 04:42:30;;;;;;;19.45;13.32;;;3.50;99.90;;;;;;5005845;28;20103;-66
2021/04/14 04:44:55;;;;;;;15.63;11.18;;;3.50;99.90;;;;;;5008747;28;20057;-66
2021/04/14 04:47:21;;;;;;;16.77;11.27;;;3.50;99.90;;;;;;5006737;28;20117;-65
2021/04/14 04:49:47;;;;;;;17.58;10.48;;;3.60;99.90;;;;;;5006889;28;20025;-66
2021/04/14 04:52:12;;;;;;;12.70;10.23;;;3.60;99.90;;;;;;5007492;28;20548;-66
2021/04/14 04:54:38;;;;;;;16.33;10.32;;;3.50;99.90;;;;;;5015296;28;20041;-66
2021/04/14 04:57:04;;;;;;;22.25;10.18;;;3.40;99.90;;;;;;5006378;28;20030;-66
2021/04/14 04:59:29;;;;;;;13.38;9.65;;;3.30;99.90;;;;;;5009443;28;20021;-65
2021/04/14 05:01:58;;;;;;;13.32;9.55;;;3.40;99.90;;;;;;5005684;28;20510;-66
2021/04/14 05:04:24;;;;;;;12.52;9.00;;;3.30;99.90;;;;;;5000990;28;20065;-65
2021/04/14 05:06:49;;;;;;;15.60;9.68;;;3.30;99.90;;;;;;5006426;28;20065;-65
2021/04/14 05:09:15;;;;;;;14.73;9.35;;;4.10;99.90;;;;;;4999268;28;20113;-65
2021/04/14 05:11:41;;;;;;;11.60;9.63;;;4.30;99.90;;;;;;5009031;28;20106;-65
2021/04/14 05:14:07;;;;;;;12.40;9.77;;;3.70;99.90;;;;;;5005877;28;20049;-66
2021/04/14 05:16:33;;;;;;;12.15;9.63;;;3.50;99.90;;;;;;5006706;28;20513;-66
2021/04/14 05:18:58;;;;;;;11.98;9.45;;;3.40;99.90;;;;;;5005126;28;20041;-66
2021/04/14 05:21:24;;;;;;;10.52;8.75;;;3.30;99.90;;;;;;5007155;28;20069;-66
2021/04/14 05:23:50;;;;;;;10.77;9.27;;;3.30;99.90;;;;;;5004442;28;20030;-66
2021/04/14 05:26:17;;;;;;;13.40;9.77;;;3.30;99.90;;;;;;5007910;28;20041;-65
2021/04/14 05:28:44;;;;;;;8.98;8.07;;;3.00;99.90;;;;;;4999732;28;20117;-65
2021/04/14 05:31:10;;;;;;;9.43;8.45;;;3.20;99.90;;;;;;5009058;28;20026;-65
2021/04/14 05:33:36;;;;;;;12.35;8.20;;;3.20;99.90;;;;;;5002183;28;20014;-65
2021/04/14 05:36:03;;;;;;;9.63;8.07;;;3.10;99.90;;;;;;5005308;28;20140;-65
2021/04/14 05:38:30;;;;;;;10.18;8.43;;;3.30;99.90;;;;;;5003638;28;20554;-66
2021/04/14 05:40:56;;;;;;;10.57;8.18;;;3.20;99.90;;;;;;5008868;28;20399;-65
2021/04/14 05:43:29;;;;;;;15.45;10.13;;;3.30;99.90;;;;;;5002344;28;20053;-65
2021/04/14 05:45:56;;;;;;;18.23;11.57;;;3.20;99.90;;;;;;5009097;28;20030;-65
2021/04/14 05:48:23;;;;;;;21.00;12.05;;;3.20;99.90;;;;;;5002333;28;20512;-65
2021/04/14 05:50:49;;;;;;;15.52;11.15;;;3.10;99.90;;;;;;5008859;28;20025;-65
2021/04/14 05:53:16;;;;;;;15.38;9.80;;;3.10;99.90;;;;;;5002011;28;20391;-66
2021/04/14 05:55:42;;;;;;;12.90;9.20;;;3.10;99.90;;;;;;5008794;28;20537;-66
2021/04/14 05:58:07;;;;;;;17.35;10.63;;;3.30;99.90;;;;;;5013674;28;20098;-65
2021/04/14 06:00:33;;;;;;;11.20;9.35;;;3.20;99.90;;;;;;5006130;28;20030;-65
2021/04/14 06:02:59;;;;;;;19.15;11.82;;;3.30;99.90;;;;;;5003435;28;20030;-65
2021/04/14 06:05:25;;;;;;;25.30;13.80;;;3.20;99.90;;;;;;5006351;28;20029;-65
2021/04/14 06:07:51;;;;;;;18.45;12.13;;;3.30;99.90;;;;;;5002379;28;20612;-65
2021/04/14 06:10:20;;;;;;;18.20;10.98;;;3.30;99.90;;;;;;5007127;28;20059;-65
2021/04/14 06:12:47;;;;;;;22.85;10.93;;;3.60;99.90;;;;;;5005304;28;20026;-65
2021/04/14 06:15:16;;;;;;;36.08;11.23;;;3.80;99.90;;;;;;5011722;28;20092;-65
2021/04/14 06:17:42;;;;;;;25.73;12.35;;;4.00;99.90;;;;;;5006699;28;20030;-66
2021/04/14 06:20:10;;;;;;;25.92;12.25;;;4.00;99.90;;;;;;5019522;28;20021;-65
2021/04/14 06:22:37;;;;;;;26.55;12.65;;;3.90;99.90;;;;;;5005926;28;20038;-66
2021/04/14 06:25:07;;;;;;;19.92;11.73;;;4.10;99.90;;;;;;5011899;28;20033;-65
2021/04/14 06:27:43;;;;;;;23.45;11.57;;;4.10;99.90;;;;;;5006532;28;20032;-65
2021/04/14 06:30:10;;;;;;;14.65;11.65;;;4.40;99.90;;;;;;5012124;28;20566;-65
2021/04/14 06:32:35;;;;;;;19.77;10.95;;;4.50;99.90;;;;;;5012362;28;20568;-65
2021/04/14 06:35:01;;;;;;;19.45;10.93;;;4.60;99.90;;;;;;5012286;28;20055;-65
2021/04/14 06:37:27;;;;;;;19.33;10.15;;;4.70;99.90;;;;;;5012232;28;20073;-65
2021/04/14 06:40:11;;;;;;;14.57;10.48;;;4.80;99.90;;;;;;5012189;28;20057;-65
2021/04/14 06:43:01;;;;;;;15.10;9.55;;;5.10;99.90;;;;;;5012029;28;20518;-65
2021/04/14 06:45:51;;;;;;;15.55;9.63;;;5.20;99.90;;;;;;5011742;28;20032;-66
2021/04/14 06:48:35;;;;;;;15.10;8.43;;;5.00;99.90;;;;;;5008086;28;20026;-66
2021/04/14 06:51:06;;;;;;;16.63;8.50;;;5.00;99.90;;;;;;5011443;28;20030;-66
2021/04/14 06:53:47;;;;;;;13.80;8.32;;;5.40;99.90;;;;;;5011400;28;20017;-66
2021/04/14 06:56:18;;;;;;;15.43;9.00;;;5.30;99.90;;;;;;5011858;28;20521;-66
2021/04/14 06:58:51;;;;;;;21.27;8.00;;;5.60;99.90;;;;;;5012066;28;20072;-66
2021/04/14 07:01:21;;;;;;;14.00;7.82;;;5.80;99.90;;;;;;5010914;28;20501;-67
2021/04/14 07:04:11;;;;;;;18.27;8.43;;;5.90;99.90;;;;;;5008761;28;20502;-67
2021/04/14 07:06:43;;;;;;;13.80;7.85;;;5.70;99.90;;;;;;5011729;28;20018;-67
2021/04/14 07:09:33;;;;;;;16.63;8.30;;;5.90;99.90;;;;;;5011841;28;20056;-67
2021/04/14 07:12:00;;;;;;;19.48;8.15;;;6.20;99.90;;;;;;5011899;28;20064;-67
2021/04/14 07:14:26;;;;;;;13.93;8.20;;;6.20;99.90;;;;;;5009871;28;20033;-67
2021/04/14 07:17:23;;;;;;;16.67;9.05;;;6.10;99.90;;;;;;5018858;28;20029;-67
2021/04/14 07:20:27;;;;;;;24.88;7.82;;;6.20;99.90;;;;;;5018249;28;20041;-66
2021/04/14 07:23:09;;;;;;;32.22;8.50;;;6.40;99.90;;;;;;5029785;28;20025;-65
2021/04/14 07:25:40;;;;;;;21.17;8.18;;;6.40;99.90;;;;;;5031232;28;20022;-65
2021/04/14 07:28:33;;;;;;;30.55;8.00;;;6.40;99.90;;;;;;5030947;28;20032;-66
2021/04/14 07:31:19;;;;;;;34.38;6.85;;;6.40;99.90;;;;;;5012000;28;20038;-65
2021/04/14 07:33:50;;;;;;;35.75;7.60;;;6.60;99.90;;;;;;5010987;28;20179;-65
2021/04/14 07:36:40;;;;;;;26.52;7.18;;;6.70;99.90;;;;;;5010888;28;20034;-65
2021/04/14 07:39:52;;;;;;;18.58;7.53;;;7.00;99.90;;;;;;5011256;28;20034;-65
2021/04/14 07:42:50;;;;;;;31.00;7.57;;;7.10;99.90;;;;;;5009622;28;20407;-65
2021/04/14 07:45:30;;;;;;;22.23;7.18;;;7.20;99.90;;;;;;5008159;28;20513;-65
2021/04/14 07:48:03;;;;;;;18.20;7.05;;;7.30;99.90;;;;;;5008913;28;20018;-65
2021/04/14 07:50:38;;;;;;;38.45;7.85;;;7.40;99.90;;;;;;5010420;28;20514;-65
2021/04/14 07:53:35;;;;;;;27.10;8.45;;;7.30;99.90;;;;;;5007758;28;20017;-65
2021/04/14 07:56:16;;;;;;;27.90;7.55;;;7.20;99.90;;;;;;5010387;28;20038;-65
2021/04/14 07:58:42;;;;;;;22.90;7.55;;;7.70;99.90;;;;;;5010929;28;20483;-64
2021/04/14 08:01:20;;;;;;;15.60;8.38;;;7.80;99.90;;;;;;5010314;28;20126;-64
2021/04/14 08:03:46;;;;;;;28.55;8.70;;;8.10;99.90;;;;;;5010656;28;20029;-64
2021/04/14 08:06:29;;;;;;;10.50;5.72;;;8.20;99.90;;;;;;5010182;28;20030;-64
2021/04/14 08:08:55;;;;;;;17.80;8.13;;;12.40;99.90;;;;;;5010755;28;20081;-64
2021/04/14 08:11:31;;;;;;;16.52;8.38;;;11.00;99.90;;;;;;5010724;28;20025;-64
2021/04/14 08:14:11;;;;;;;21.08;9.45;;;9.10;99.90;;;;;;5010818;28;20049;-64
2021/04/14 08:16:41;;;;;;;24.50;11.45;;;8.70;99.90;;;;;;5010228;28;20534;-64
2021/04/14 08:19:24;;;;;;;21.55;11.27;;;8.90;99.90;;;;;;5010239;28;20029;-64
2021/04/14 08:22:11;;;;;;;25.40;10.10;;;9.00;99.90;;;;;;5009528;28;20124;-65
2021/04/14 08:24:41;;;;;;;;;;;9.00;99.90;;;;;;5010823;28;20467;-66
2021/04/14 08:27:17;;;;;;;20.08;9.35;;;9.10;99.90;;;;;;5010441;28;20313;-65
2021/04/14 08:29:47;;;;;;;26.60;16.58;;;9.60;99.90;;;;;;5010155;28;20490;-63
2021/04/14 08:32:16;;;;;;;27.17;14.65;;;9.40;99.90;;;;;;5010300;28;20057;-65
2021/04/14 08:34:56;;;;;;;23.15;10.93;;;9.30;99.90;;;;;;5009944;28;20040;-63
2021/04/14 08:37:23;;;;;;;27.13;15.15;;;9.60;99.90;;;;;;5010575;28;20022;-64
2021/04/14 08:40:00;;;;;;;26.05;15.23;;;9.50;99.90;;;;;;5025344;28;20591;-63
2021/04/14 08:42:39;;;;;;;41.00;17.13;;;9.80;99.90;;;;;;5010393;28;20029;-62
2021/04/14 08:45:05;;;;;;;24.05;15.68;;;9.70;99.90;;;;;;5009728;28;20018;-63
2021/04/14 08:47:33;;;;;;;17.83;14.38;;;10.00;99.90;;;;;;5010213;28;20033;-62
2021/04/14 08:50:08;;;;;;;30.10;13.80;;;10.10;99.90;;;;;;5009947;28;20026;-63
2021/04/14 08:52:48;;;;;;;26.83;11.93;;;10.30;99.90;;;;;;5009880;28;20034;-63
2021/04/14 08:55:14;;;;;;;24.15;10.73;;;10.60;99.90;;;;;;5002078;28;20026;-63
2021/04/14 08:57:40;;;;;;;8.15;7.38;;;10.70;99.90;;;;;;5041583;28;20071;-62
2021/04/14 09:00:08;;;;;;;9.77;7.30;;;10.80;99.90;;;;;;5016869;28;20040;-64
2021/04/14 09:02:35;;;;;;;8.68;6.43;;;10.90;99.90;;;;;;5009230;28;20037;-64
2021/04/14 09:05:03;;;;;;;7.63;6.75;;;10.70;99.90;;;;;;5009469;28;20049;-65
2021/04/14 09:07:34;;;;;;;9.82;6.80;;;10.70;99.90;;;;;;5008606;28;20129;-64
2021/04/14 09:10:06;;;;;;;11.52;6.93;;;10.70;99.90;;;;;;5009832;28;20036;-65
2021/04/14 09:12:51;;;;;;;10.00;6.35;;;11.00;99.90;;;;;;5009674;28;20066;-65
2021/04/14 09:15:17;;;;;;;14.68;7.15;;;11.30;99.90;;;;;;5009899;28;20029;-65
2021/04/14 09:17:56;;;;;;;15.88;7.30;;;11.70;99.90;;;;;;5009586;28;20022;-65
2021/04/14 09:20:27;;;;;;;20.08;6.88;;;11.80;99.90;;;;;;5009148;28;20029;-65
2021/04/14 09:23:09;;;;;;;8.57;6.03;;;11.70;99.90;;;;;;5009225;28;20101;-65
2021/04/14 09:25:47;;;;;;;7.03;5.30;;;11.90;99.90;;;;;;5009478;28;20041;-65
2021/04/14 09:28:29;;;;;;;11.73;5.88;;;12.00;99.90;;;;;;5009683;28;20022;-66
2021/04/14 09:31:17;;;;;;;7.53;6.65;;;11.90;99.90;;;;;;5009609;28;20045;-65
2021/04/14 09:33:46;;;;;;;18.55;6.25;;;11.90;99.90;;;;;;5012169;28;20117;-65
2021/04/14 09:36:13;;;;;;;14.52;5.28;;;12.50;99.90;;;;;;5008848;28;20724;-65
2021/04/14 09:38:50;;;;;;;13.75;5.70;;;12.50;99.90;;;;;;5009482;28;20544;-65
2021/04/14 09:41:30;;;;;;;6.45;5.35;;;12.50;99.90;;;;;;5009166;28;20072;-65
2021/04/14 09:44:10;;;;;;;12.32;5.20;;;12.70;99.90;;;;;;5009635;28;20014;-64
2021/04/14 09:46:55;;;;;;;6.93;4.75;;;12.70;99.90;;;;;;5012186;28;20509;-65
2021/04/14 09:49:37;;;;;;;10.32;4.35;;;12.70;99.90;;;;;;5013122;28;20026;-65
2021/04/14 09:52:06;;;;;;;16.13;5.10;;;12.70;99.70;;;;;;5012436;28;20037;-65
2021/04/14 09:54:36;;;;;;;7.68;4.07;;;13.00;99.90;;;;;;5013144;28;20420;-65
2021/04/14 09:57:04;;;;;;;9.57;4.63;;;13.00;98.60;;;;;;5014913;28;20038;-65
2021/04/14 09:59:39;;;;;;;13.93;4.43;;;12.90;99.60;;;;;;5012934;28;20045;-63
2021/04/14 10:02:21;;;;;;;12.63;4.80;;;13.10;98.70;;;;;;5012739;28;20068;-63
2021/04/14 10:04:48;;;;;;;8.95;5.18;;;13.50;99.70;;;;;;5012606;28;20522;-63
2021/04/14 10:07:27;;;;;;;11.27;5.22;;;13.40;97.80;;;;;;5012743;28;20449;-63
2021/04/14 10:10:09;;;;;;;16.20;4.55;;;13.80;99.20;;;;;;5012634;28;20049;-63
2021/04/14 10:12:36;;;;;;;10.05;4.40;;;13.80;97.40;;;;;;5012892;28;20034;-63
2021/04/14 10:15:06;;;;;;;7.28;4.22;;;14.20;98.20;;;;;;5012800;28;20032;-63
2021/04/14 10:17:33;;;;;;;6.20;3.40;;;14.20;96.80;;;;;;5013075;28;20518;-63
2021/04/14 10:20:21;;;;;;;7.85;3.65;;;14.30;96.40;;;;;;5012867;28;20018;-63
2021/04/14 10:22:50;;;;;;;16.02;4.00;;;14.30;96.00;;;;;;5012435;28;20026;-63
2021/04/14 10:25:15;;;;;;;5.38;3.53;;;14.70;94.90;;;;;;5012812;28;20531;-63
2021/04/14 10:27:42;;;;;;;6.50;3.80;;;14.70;95.20;;;;;;5012919;28;20109;-63
2021/04/14 10:30:10;;;;;;;8.90;3.10;;;14.90;94.90;;;;;;5012568;28;20391;-62
2021/04/14 10:32:37;;;;;;;4.20;3.90;;;15.00;95.60;;;;;;5012664;28;20017;-63
2021/04/14 10:35:15;;;;;;;10.68;3.55;;;15.00;95.10;;;;;;5012554;28;20445;-63
2021/04/14 10:37:48;;;;;;;5.30;3.47;;;14.90;95.90;;;;;;5012331;28;20026;-63
2021/04/14 10:40:20;;;;;;;4.68;3.08;;;15.20;95.70;;;;;;5012529;28;20505;-63
2021/04/14 10:42:48;;;;;;;5.30;2.90;;;15.00;95.70;;;;;;5012368;28;20364;-63
2021/04/14 10:45:16;;;;;;;3.67;2.85;;;14.80;93.30;;;;;;5012597;28;20465;-63
2021/04/14 10:47:44;;;;;;;2.97;2.53;;;14.80;94.10;;;;;;5012329;28;20048;-63
2021/04/14 10:50:32;;;;;;;7.32;2.67;;;15.50;93.70;;;;;;5003940;28;20017;-63
2021/04/14 10:53:09;;;;;;;3.22;2.50;;;15.40;93.00;;;;;;5024279;28;20614;-63
2021/04/14 10:55:40;;;;;;;6.53;2.45;;;15.80;93.70;;;;;;5018924;28;20026;-63
2021/04/14 10:58:08;;;;;;;4.05;2.67;;;15.70;93.80;;;;;;5022069;28;20033;-63
2021/04/14 11:00:38;;;;;;;3.55;2.63;;;16.00;93.10;;;;;;5030300;28;20428;-61
2021/04/14 11:03:08;;;;;;;4.35;2.92;;;16.20;93.10;;;;;;5031331;28;20434;-62
2021/04/14 11:05:38;;;;;;;3.95;2.78;;;16.10;91.50;;;;;;5029936;28;20017;-62
2021/04/14 11:08:06;;;;;;;4.47;2.45;;;15.60;91.00;;;;;;5029799;28;20053;-62
2021/04/14 11:10:37;;;;;;;4.47;2.25;;;16.00;92.10;;;;;;5030056;28;20687;-61
2021/04/14 11:13:09;;;;;;;8.43;2.67;;;16.20;91.70;;;;;;5030022;28;20030;-61
2021/04/14 11:15:41;;;;;;;9.50;3.42;;;16.20;91.20;;;;;;5030021;28;20044;-62
2021/04/14 11:18:10;;;;;;;4.70;2.55;;;16.50;92.50;;;;;;5029985;28;20033;-62
2021/04/14 11:21:09;;;;;;;6.72;2.92;;;16.30;91.60;;;;;;5030817;28;20045;-62
2021/04/14 11:23:39;;;;;;;5.47;2.95;;;16.80;91.90;;;;;;5031141;28;20056;-62
2021/04/14 11:26:10;;;;;;;3.55;2.50;;;16.70;90.10;;;;;;5031419;28;20560;-61
2021/04/14 11:28:50;;;;;;;27.48;4.80;;;16.60;92.00;;;;;;5031046;28;20018;-62
2021/04/14 11:31:33;;;;;;;12.48;3.30;;;16.80;90.80;;;;;;5033575;28;20033;-61
2021/04/14 11:34:10;;;;;;;11.55;3.15;;;16.50;90.20;;;;;;5031082;28;20029;-60
2021/04/14 11:36:37;;;;;;;6.13;2.63;;;16.90;91.10;;;;;;5013434;28;20094;-61
2021/04/14 11:39:11;;;;;;;5.18;3.00;;;17.20;90.10;;;;;;5010699;28;20510;-62
2021/04/14 11:41:44;;;;;;;7.95;2.80;;;16.90;86.70;;;;;;5017629;28;20030;-61
2021/04/14 11:44:24;;;;;;;9.30;2.80;;;17.70;90.10;;;;;;5010106;28;20859;-61
2021/04/14 11:47:02;;;;;;;6.72;2.45;;;17.00;87.30;;;;;;5008852;28;20532;-62
2021/04/14 11:49:31;;;;;;;3.50;2.50;;;17.10;85.70;;;;;;5009167;28;20688;-62
2021/04/14 11:52:01;;;;;;;6.57;2.85;;;17.00;85.70;;;;;;5010114;28;20096;-62
2021/04/14 11:54:34;;;;;;;7.25;2.75;;;17.20;86.80;;;;;;5010829;28;20421;-61
2021/04/14 11:57:04;;;;;;;14.50;3.47;;;18.30;88.70;;;;;;5010459;28;20030;-62
2021/04/14 11:59:33;;;;;;;18.13;3.22;;;18.70;83.90;;;;;;5009860;28;20026;-62
2021/04/14 12:02:11;;;;;;;21.08;3.25;;;18.30;83.40;;;;;;5010334;28;20116;-62
2021/04/14 12:04:37;;;;;;;9.32;2.65;;;18.70;82.00;;;;;;5008928;28;20044;-62
2021/04/14 12:07:03;;;;;;;29.73;3.72;;;18.10;82.10;;;;;;5010131;28;20073;-62
2021/04/14 12:09:29;;;;;;;4.78;2.00;;;18.30;81.60;;;;;;5009763;28;20057;-64
2021/04/14 12:12:04;;;;;;;5.78;2.47;;;18.30;80.80;;;;;;5010285;28;20057;-64
2021/04/14 12:14:30;;;;;;;4.70;2.22;;;18.50;79.10;;;;;;5010472;28;20037;-64
2021/04/14 12:16:56;;;;;;;40.88;3.97;;;18.50;79.70;;;;;;5010526;28;20022;-64
2021/04/14 12:19:22;;;;;;;15.75;3.47;;;19.10;80.00;;;;;;5010500;28;20037;-64
2021/04/14 12:21:49;;;;;;;7.15;2.03;;;19.30;79.00;;;;;;5018381;28;20415;-65
2021/04/14 12:24:15;;;;;;;76.18;7.10;;;19.30;79.10;;;;;;5030282;28;20049;-65
2021/04/14 12:26:41;;;;;;;30.90;4.28;;;19.70;79.10;;;;;;5030164;28;20072;-65
2021/04/14 12:29:07;;;;;;;3.92;2.13;;;19.60;79.40;;;;;;5030102;28;20433;-65
2021/04/14 12:31:33;;;;;;;6.40;2.70;;;19.60;78.50;;;;;;5029794;28;20040;-65
2021/04/14 12:34:02;;;;;;;63.53;5.80;;;19.20;75.50;;;;;;5030034;28;20030;-64
2021/04/14 12:36:28;;;;;;;3.83;2.10;;;19.90;78.90;;;;;;5026011;28;20030;-64
2021/04/14 12:38:54;;;;;;;4.68;2.38;;;19.50;74.00;;;;;;5009769;28;20396;-64
2021/04/14 12:41:20;;;;;;;7.93;2.72;;;19.60;74.80;;;;;;5008884;28;20046;-64
2021/04/14 12:43:45;;;;;;;3.25;2.42;;;20.00;75.70;;;;;;5008514;28;20022;-64
2021/04/14 12:46:11;;;;;;;5.07;2.47;;;20.00;74.10;;;;;;5008559;28;20037;-64
2021/04/14 12:48:41;;;;;;;2.63;2.28;;;19.60;71.30;;;;;;5008899;28;20427;-65
2021/04/14 12:51:29;;;;;;;3.15;2.17;;;19.60;73.00;;;;;;5008515;28;20033;-64
2021/04/14 12:54:00;;;;;;;6.35;2.22;;;20.00;73.50;;;;;;5008568;28;20026;-65
2021/04/14 12:56:38;;;;;;;10.13;2.40;;;20.60;73.50;;;;;;5008614;28;20040;-67